sensor_id;sensor_type;location;lat;lon;timestamp;P1;durP1;ratioP1;P2;durP2;ratioP2
14817;SDS011;7500;57.698;11.986;2023-02-01T00:02:03;10.97;;;1.80;;
14817;SDS011;7500;57.698;11.986;2023-02-01T00:04:29;10.03;;;2.07;;
14817;SDS011;7500;57.698;11.986;2023-02-01T00:06:56;8.63;;;1.43;;
14817;SDS011;7500;57.698;11.986;2023-02-01T00:09:23;12.27;;;2.30;;
14817;SDS011;7500;57.698;11.986;2023-02-01T00:11:50;11.93;;;2.13;;
14817;SDS011;7500;57.698;11.986;2023-02-01T00:14:17;6.77;;;1.50;;
14817;SDS011;7500;57.698;11.986;2023-02-01T00:16:44;9.77;;;1.93;;
14817;SDS011;7500;57.698;11.986;2023-02-01T00:19:13;11.47;;;2.30;;
14817;SDS011;7500;57.698;11.986;2023-02-01T00:21:41;9.30;;;1.40;;
14817;SDS011;7500;57.698;11.986;2023-02-01T00:24:09;9.93;;;1.60;;
14817;SDS011;7500;57.698;11.986;2023-02-01T00:26:37;14.10;;;1.80;;
14817;SDS011;7500;57.698;11.986;2023-02-01T00:29:06;10.43;;;2.27;;
14817;SDS011;7500;57.698;11.986;2023-02-01T00:31:35;10.50;;;1.80;;
14817;SDS011;7500;57.698;11.986;2023-02-01T00:34:02;8.47;;;1.73;;
14817;SDS011;7500;57.698;11.986;2023-02-01T00:36:31;14.97;;;2.33;;
14817;SDS011;7500;57.698;11.986;2023-02-01T00:38:58;11.23;;;1.90;;
14817;SDS011;7500;57.698;11.986;2023-02-01T00:41:25;15.13;;;2.33;;
14817;SDS011;7500;57.698;11.986;2023-02-01T00:43:52;13.73;;;1.97;;
14817;SDS011;7500;57.698;11.986;2023-02-01T00:46:19;14.30;;;2.30;;
14817;SDS011;7500;57.698;11.986;2023-02-01T00:48:46;12.60;;;2.27;;
14817;SDS011;7500;57.698;11.986;2023-02-01T00:51:14;11.50;;;1.93;;
14817;SDS011;7500;57.698;11.986;2023-02-01T00:53:44;11.33;;;2.00;;
14817;SDS011;7500;57.698;11.986;2023-02-01T00:56:11;10.13;;;1.93;;
14817;SDS011;7500;57.698;11.986;2023-02-01T00:58:38;11.77;;;2.20;;
14817;SDS011;7500;57.698;11.986;2023-02-01T01:01:05;9.47;;;2.37;;
14817;SDS011;7500;57.698;11.986;2023-02-01T01:03:35;13.63;;;1.90;;
14817;SDS011;7500;57.698;11.986;2023-02-01T01:06:05;8.53;;;1.80;;
14817;SDS011;7500;57.698;11.986;2023-02-01T01:08:33;9.80;;;1.87;;
14817;SDS011;7500;57.698;11.986;2023-02-01T01:11:04;11.00;;;2.40;;
14817;SDS011;7500;57.698;11.986;2023-02-01T01:13:32;14.50;;;2.27;;
14817;SDS011;7500;57.698;11.986;2023-02-01T01:15:59;15.30;;;2.47;;
14817;SDS011;7500;57.698;11.986;2023-02-01T01:18:28;9.77;;;2.07;;
14817;SDS011;7500;57.698;11.986;2023-02-01T01:20:55;11.60;;;1.97;;
14817;SDS011;7500;57.698;11.986;2023-02-01T01:23:22;17.30;;;2.67;;
14817;SDS011;7500;57.698;11.986;2023-02-01T01:25:49;10.93;;;2.50;;
14817;SDS011;7500;57.698;11.986;2023-02-01T01:28:17;15.33;;;2.50;;
14817;SDS011;7500;57.698;11.986;2023-02-01T01:30:44;11.03;;;2.00;;
14817;SDS011;7500;57.698;11.986;2023-02-01T01:33:12;10.80;;;2.43;;
14817;SDS011;7500;57.698;11.986;2023-02-01T01:35:39;10.93;;;2.07;;
14817;SDS011;7500;57.698;11.986;2023-02-01T01:38:06;12.73;;;2.27;;
14817;SDS011;7500;57.698;11.986;2023-02-01T01:40:33;14.67;;;2.80;;
14817;SDS011;7500;57.698;11.986;2023-02-01T01:43:00;12.73;;;2.13;;
14817;SDS011;7500;57.698;11.986;2023-02-01T01:45:29;18.03;;;2.73;;
14817;SDS011;7500;57.698;11.986;2023-02-01T01:47:58;15.63;;;2.60;;
14817;SDS011;7500;57.698;11.986;2023-02-01T01:50:28;10.40;;;1.97;;
14817;SDS011;7500;57.698;11.986;2023-02-01T01:52:58;8.57;;;1.53;;
14817;SDS011;7500;57.698;11.986;2023-02-01T01:55:27;9.87;;;2.93;;
14817;SDS011;7500;57.698;11.986;2023-02-01T01:57:59;13.30;;;2.40;;
14817;SDS011;7500;57.698;11.986;2023-02-01T02:00:32;13.27;;;2.43;;
14817;SDS011;7500;57.698;11.986;2023-02-01T02:03:00;10.93;;;2.10;;
14817;SDS011;7500;57.698;11.986;2023-02-01T02:05:35;10.87;;;1.97;;
14817;SDS011;7500;57.698;11.986;2023-02-01T02:08:02;8.83;;;1.90;;
14817;SDS011;7500;57.698;11.986;2023-02-01T02:10:29;8.97;;;2.23;;
14817;SDS011;7500;57.698;11.986;2023-02-01T02:13:10;12.17;;;2.93;;
14817;SDS011;7500;57.698;11.986;2023-02-01T02:15:41;9.13;;;1.57;;
14817;SDS011;7500;57.698;11.986;2023-02-01T02:18:14;15.53;;;2.93;;
14817;SDS011;7500;57.698;11.986;2023-02-01T02:20:50;9.43;;;2.40;;
14817;SDS011;7500;57.698;11.986;2023-02-01T02:35:34;14.97;;;2.93;;
14817;SDS011;7500;57.698;11.986;2023-02-01T02:38:13;13.13;;;2.80;;
14817;SDS011;7500;57.698;11.986;2023-02-01T02:40:48;19.07;;;2.60;;
14817;SDS011;7500;57.698;11.986;2023-02-01T02:43:24;20.87;;;3.77;;
14817;SDS011;7500;57.698;11.986;2023-02-01T02:46:16;18.57;;;3.10;;
14817;SDS011;7500;57.698;11.986;2023-02-01T02:49:09;16.87;;;3.10;;
14817;SDS011;7500;57.698;11.986;2023-02-01T02:51:42;15.63;;;2.97;;
14817;SDS011;7500;57.698;11.986;2023-02-01T02:54:29;18.57;;;3.10;;
14817;SDS011;7500;57.698;11.986;2023-02-01T02:57:15;16.93;;;3.07;;
14817;SDS011;7500;57.698;11.986;2023-02-01T03:00:04;11.17;;;2.57;;
14817;SDS011;7500;57.698;11.986;2023-02-01T03:02:52;17.33;;;2.90;;
14817;SDS011;7500;57.698;11.986;2023-02-01T03:05:39;18.53;;;3.00;;
14817;SDS011;7500;57.698;11.986;2023-02-01T03:08:11;15.63;;;3.63;;
14817;SDS011;7500;57.698;11.986;2023-02-01T03:10:44;14.57;;;3.27;;
14817;SDS011;7500;57.698;11.986;2023-02-01T03:13:20;15.90;;;3.10;;
14817;SDS011;7500;57.698;11.986;2023-02-01T03:15:53;18.10;;;3.03;;
14817;SDS011;7500;57.698;11.986;2023-02-01T03:18:28;18.63;;;3.03;;
14817;SDS011;7500;57.698;11.986;2023-02-01T03:21:00;12.93;;;2.60;;
14817;SDS011;7500;57.698;11.986;2023-02-01T03:23:34;19.07;;;2.50;;
14817;SDS011;7500;57.698;11.986;2023-02-01T03:26:03;15.27;;;2.73;;
14817;SDS011;7500;57.698;11.986;2023-02-01T03:28:33;16.37;;;3.67;;
14817;SDS011;7500;57.698;11.986;2023-02-01T03:31:02;26.20;;;3.80;;
14817;SDS011;7500;57.698;11.986;2023-02-01T03:33:29;20.73;;;3.90;;
14817;SDS011;7500;57.698;11.986;2023-02-01T03:36:04;31.23;;;4.50;;
14817;SDS011;7500;57.698;11.986;2023-02-01T03:38:42;21.03;;;3.57;;
14817;SDS011;7500;57.698;11.986;2023-02-01T03:41:17;24.07;;;3.80;;
14817;SDS011;7500;57.698;11.986;2023-02-01T03:43:50;32.17;;;5.73;;
14817;SDS011;7500;57.698;11.986;2023-02-01T03:46:23;26.43;;;4.07;;
14817;SDS011;7500;57.698;11.986;2023-02-01T03:48:58;20.43;;;4.07;;
14817;SDS011;7500;57.698;11.986;2023-02-01T03:51:28;29.00;;;3.90;;
14817;SDS011;7500;57.698;11.986;2023-02-01T03:53:59;13.83;;;2.33;;
14817;SDS011;7500;57.698;11.986;2023-02-01T03:56:29;18.43;;;3.73;;
14817;SDS011;7500;57.698;11.986;2023-02-01T03:58:57;25.70;;;4.47;;
14817;SDS011;7500;57.698;11.986;2023-02-01T04:01:25;23.60;;;3.90;;
14817;SDS011;7500;57.698;11.986;2023-02-01T04:03:53;18.73;;;3.60;;
14817;SDS011;7500;57.698;11.986;2023-02-01T04:06:20;24.63;;;3.43;;
14817;SDS011;7500;57.698;11.986;2023-02-01T04:08:47;24.50;;;4.17;;
14817;SDS011;7500;57.698;11.986;2023-02-01T04:11:15;17.97;;;3.80;;
14817;SDS011;7500;57.698;11.986;2023-02-01T04:13:42;14.03;;;2.50;;
14817;SDS011;7500;57.698;11.986;2023-02-01T04:16:09;24.27;;;4.53;;
14817;SDS011;7500;57.698;11.986;2023-02-01T04:18:36;20.27;;;3.60;;
14817;SDS011;7500;57.698;11.986;2023-02-01T04:21:03;19.50;;;3.97;;
14817;SDS011;7500;57.698;11.986;2023-02-01T04:23:30;24.93;;;3.77;;
14817;SDS011;7500;57.698;11.986;2023-02-01T04:26:00;21.43;;;4.10;;
14817;SDS011;7500;57.698;11.986;2023-02-01T04:28:30;22.90;;;3.70;;
14817;SDS011;7500;57.698;11.986;2023-02-01T04:30:57;24.30;;;4.40;;
14817;SDS011;7500;57.698;11.986;2023-02-01T04:33:24;23.53;;;3.87;;
14817;SDS011;7500;57.698;11.986;2023-02-01T04:35:51;22.60;;;4.07;;
14817;SDS011;7500;57.698;11.986;2023-02-01T04:38:18;24.90;;;4.67;;
14817;SDS011;7500;57.698;11.986;2023-02-01T04:40:46;14.80;;;3.33;;
14817;SDS011;7500;57.698;11.986;2023-02-01T04:43:13;21.20;;;4.23;;
14817;SDS011;7500;57.698;11.986;2023-02-01T04:45:42;19.87;;;3.67;;
14817;SDS011;7500;57.698;11.986;2023-02-01T04:48:13;23.90;;;4.03;;
14817;SDS011;7500;57.698;11.986;2023-02-01T04:50:40;16.53;;;3.63;;
14817;SDS011;7500;57.698;11.986;2023-02-01T04:53:07;22.13;;;3.53;;
14817;SDS011;7500;57.698;11.986;2023-02-01T04:55:33;21.13;;;3.63;;
14817;SDS011;7500;57.698;11.986;2023-02-01T04:58:00;16.83;;;3.53;;
14817;SDS011;7500;57.698;11.986;2023-02-01T05:00:27;17.77;;;4.23;;
14817;SDS011;7500;57.698;11.986;2023-02-01T05:02:55;22.57;;;3.93;;
14817;SDS011;7500;57.698;11.986;2023-02-01T05:05:22;18.67;;;3.87;;
14817;SDS011;7500;57.698;11.986;2023-02-01T05:07:49;26.37;;;4.93;;
14817;SDS011;7500;57.698;11.986;2023-02-01T05:10:16;25.83;;;4.33;;
14817;SDS011;7500;57.698;11.986;2023-02-01T05:12:43;27.60;;;4.43;;
14817;SDS011;7500;57.698;11.986;2023-02-01T05:15:27;15.40;;;4.20;;
14817;SDS011;7500;57.698;11.986;2023-02-01T05:17:56;23.20;;;3.93;;
14817;SDS011;7500;57.698;11.986;2023-02-01T05:20:23;19.83;;;4.13;;
14817;SDS011;7500;57.698;11.986;2023-02-01T05:22:50;23.13;;;4.47;;
14817;SDS011;7500;57.698;11.986;2023-02-01T05:25:17;26.17;;;3.93;;
14817;SDS011;7500;57.698;11.986;2023-02-01T05:27:44;18.33;;;3.40;;
14817;SDS011;7500;57.698;11.986;2023-02-01T05:30:11;15.57;;;3.27;;
14817;SDS011;7500;57.698;11.986;2023-02-01T05:32:38;22.57;;;3.50;;
14817;SDS011;7500;57.698;11.986;2023-02-01T05:35:07;15.40;;;2.60;;
14817;SDS011;7500;57.698;11.986;2023-02-01T05:37:35;20.70;;;4.10;;
14817;SDS011;7500;57.698;11.986;2023-02-01T05:40:02;18.60;;;3.83;;
14817;SDS011;7500;57.698;11.986;2023-02-01T05:42:29;20.10;;;2.97;;
14817;SDS011;7500;57.698;11.986;2023-02-01T05:44:56;23.63;;;4.70;;
14817;SDS011;7500;57.698;11.986;2023-02-01T05:47:23;25.10;;;3.80;;
14817;SDS011;7500;57.698;11.986;2023-02-01T05:49:50;20.97;;;3.90;;
14817;SDS011;7500;57.698;11.986;2023-02-01T05:52:18;19.00;;;3.33;;
14817;SDS011;7500;57.698;11.986;2023-02-01T05:54:45;23.80;;;4.03;;
14817;SDS011;7500;57.698;11.986;2023-02-01T05:57:12;25.83;;;4.03;;
14817;SDS011;7500;57.698;11.986;2023-02-01T05:59:39;16.20;;;3.67;;
14817;SDS011;7500;57.698;11.986;2023-02-01T06:02:09;16.93;;;4.07;;
14817;SDS011;7500;57.698;11.986;2023-02-01T06:04:37;20.93;;;3.73;;
14817;SDS011;7500;57.698;11.986;2023-02-01T06:07:04;23.05;;;3.70;;
14817;SDS011;7500;57.698;11.986;2023-02-01T06:09:33;17.80;;;3.03;;
14817;SDS011;7500;57.698;11.986;2023-02-01T06:12:00;15.33;;;3.07;;
14817;SDS011;7500;57.698;11.986;2023-02-01T06:14:27;16.70;;;3.80;;
14817;SDS011;7500;57.698;11.986;2023-02-01T06:16:54;18.37;;;4.10;;
14817;SDS011;7500;57.698;11.986;2023-02-01T06:19:21;18.23;;;3.73;;
14817;SDS011;7500;57.698;11.986;2023-02-01T06:21:48;16.57;;;3.37;;
14817;SDS011;7500;57.698;11.986;2023-02-01T06:24:15;18.40;;;3.23;;
14817;SDS011;7500;57.698;11.986;2023-02-01T06:26:44;13.80;;;3.80;;
14817;SDS011;7500;57.698;11.986;2023-02-01T06:29:11;23.00;;;3.90;;
14817;SDS011;7500;57.698;11.986;2023-02-01T06:31:38;22.83;;;4.10;;
14817;SDS011;7500;57.698;11.986;2023-02-01T06:34:07;26.40;;;4.03;;
14817;SDS011;7500;57.698;11.986;2023-02-01T06:36:34;21.20;;;4.13;;
14817;SDS011;7500;57.698;11.986;2023-02-01T06:39:01;22.07;;;4.33;;
14817;SDS011;7500;57.698;11.986;2023-02-01T06:41:28;26.53;;;5.00;;
14817;SDS011;7500;57.698;11.986;2023-02-01T06:43:57;19.83;;;4.30;;
14817;SDS011;7500;57.698;11.986;2023-02-01T06:46:24;21.23;;;3.97;;
14817;SDS011;7500;57.698;11.986;2023-02-01T06:48:50;25.87;;;4.10;;
14817;SDS011;7500;57.698;11.986;2023-02-01T06:51:18;18.93;;;4.23;;
14817;SDS011;7500;57.698;11.986;2023-02-01T06:53:46;19.73;;;3.50;;
14817;SDS011;7500;57.698;11.986;2023-02-01T06:56:13;24.63;;;4.23;;
14817;SDS011;7500;57.698;11.986;2023-02-01T06:58:40;22.63;;;3.90;;
14817;SDS011;7500;57.698;11.986;2023-02-01T07:01:09;21.67;;;2.97;;
14817;SDS011;7500;57.698;11.986;2023-02-01T07:03:37;13.23;;;2.87;;
14817;SDS011;7500;57.698;11.986;2023-02-01T07:06:04;18.27;;;3.13;;
14817;SDS011;7500;57.698;11.986;2023-02-01T07:08:32;22.57;;;3.23;;
14817;SDS011;7500;57.698;11.986;2023-02-01T07:11:01;16.17;;;3.20;;
14817;SDS011;7500;57.698;11.986;2023-02-01T07:13:28;16.47;;;3.37;;
14817;SDS011;7500;57.698;11.986;2023-02-01T07:15:57;20.03;;;2.97;;
14817;SDS011;7500;57.698;11.986;2023-02-01T07:18:26;20.07;;;3.47;;
14817;SDS011;7500;57.698;11.986;2023-02-01T07:20:54;26.20;;;3.80;;
14817;SDS011;7500;57.698;11.986;2023-02-01T07:23:21;18.13;;;3.70;;
14817;SDS011;7500;57.698;11.986;2023-02-01T07:25:48;21.97;;;3.37;;
14817;SDS011;7500;57.698;11.986;2023-02-01T07:28:19;17.67;;;3.90;;
14817;SDS011;7500;57.698;11.986;2023-02-01T07:30:45;19.67;;;3.13;;
14817;SDS011;7500;57.698;11.986;2023-02-01T07:33:16;20.97;;;3.50;;
14817;SDS011;7500;57.698;11.986;2023-02-01T07:35:45;11.27;;;3.30;;
14817;SDS011;7500;57.698;11.986;2023-02-01T07:38:13;13.40;;;2.37;;
14817;SDS011;7500;57.698;11.986;2023-02-01T07:40:40;15.07;;;2.70;;
14817;SDS011;7500;57.698;11.986;2023-02-01T07:43:07;14.00;;;2.80;;
14817;SDS011;7500;57.698;11.986;2023-02-01T07:45:34;14.17;;;2.33;;
14817;SDS011;7500;57.698;11.986;2023-02-01T07:48:02;15.33;;;2.83;;
14817;SDS011;7500;57.698;11.986;2023-02-01T07:50:29;16.70;;;2.40;;
14817;SDS011;7500;57.698;11.986;2023-02-01T07:52:59;11.40;;;2.87;;
14817;SDS011;7500;57.698;11.986;2023-02-01T07:55:27;12.57;;;2.00;;
14817;SDS011;7500;57.698;11.986;2023-02-01T07:57:56;13.70;;;2.60;;
14817;SDS011;7500;57.698;11.986;2023-02-01T08:00:24;11.20;;;2.50;;
14817;SDS011;7500;57.698;11.986;2023-02-01T08:03:09;10.70;;;2.30;;
14817;SDS011;7500;57.698;11.986;2023-02-01T08:05:36;7.90;;;2.40;;
14817;SDS011;7500;57.698;11.986;2023-02-01T08:08:04;12.03;;;2.10;;
14817;SDS011;7500;57.698;11.986;2023-02-01T08:10:32;13.07;;;2.27;;
14817;SDS011;7500;57.698;11.986;2023-02-01T08:13:00;15.13;;;2.77;;
14817;SDS011;7500;57.698;11.986;2023-02-01T08:15:27;16.50;;;2.73;;
14817;SDS011;7500;57.698;11.986;2023-02-01T08:17:55;18.17;;;2.73;;
14817;SDS011;7500;57.698;11.986;2023-02-01T08:20:22;15.63;;;2.77;;
14817;SDS011;7500;57.698;11.986;2023-02-01T08:22:51;14.13;;;2.77;;
14817;SDS011;7500;57.698;11.986;2023-02-01T08:25:19;12.23;;;2.67;;
14817;SDS011;7500;57.698;11.986;2023-02-01T08:27:46;16.87;;;3.37;;
14817;SDS011;7500;57.698;11.986;2023-02-01T08:30:14;14.33;;;2.63;;
14817;SDS011;7500;57.698;11.986;2023-02-01T08:32:41;13.43;;;3.03;;
14817;SDS011;7500;57.698;11.986;2023-02-01T08:35:09;22.23;;;2.93;;
14817;SDS011;7500;57.698;11.986;2023-02-01T08:37:36;15.90;;;2.77;;
14817;SDS011;7500;57.698;11.986;2023-02-01T08:40:03;12.17;;;2.87;;
14817;SDS011;7500;57.698;11.986;2023-02-01T08:42:32;12.77;;;2.80;;
14817;SDS011;7500;57.698;11.986;2023-02-01T08:45:22;15.80;;;3.53;;
14817;SDS011;7500;57.698;11.986;2023-02-01T08:47:51;21.27;;;3.07;;
14817;SDS011;7500;57.698;11.986;2023-02-01T08:50:19;18.43;;;3.17;;
14817;SDS011;7500;57.698;11.986;2023-02-01T08:52:47;17.23;;;2.70;;
14817;SDS011;7500;57.698;11.986;2023-02-01T08:55:14;16.60;;;3.60;;
14817;SDS011;7500;57.698;11.986;2023-02-01T08:57:42;15.70;;;3.37;;
14817;SDS011;7500;57.698;11.986;2023-02-01T09:00:10;18.07;;;3.43;;
14817;SDS011;7500;57.698;11.986;2023-02-01T09:02:41;21.27;;;2.97;;
14817;SDS011;7500;57.698;11.986;2023-02-01T09:05:09;17.30;;;2.90;;
14817;SDS011;7500;57.698;11.986;2023-02-01T09:07:36;25.17;;;4.47;;
14817;SDS011;7500;57.698;11.986;2023-02-01T09:10:04;18.80;;;3.73;;
14817;SDS011;7500;57.698;11.986;2023-02-01T09:12:31;20.83;;;3.40;;
14817;SDS011;7500;57.698;11.986;2023-02-01T09:14:59;22.97;;;4.50;;
14817;SDS011;7500;57.698;11.986;2023-02-01T09:17:26;20.77;;;3.30;;
14817;SDS011;7500;57.698;11.986;2023-02-01T09:19:55;21.87;;;4.77;;
14817;SDS011;7500;57.698;11.986;2023-02-01T09:22:22;21.00;;;3.10;;
14817;SDS011;7500;57.698;11.986;2023-02-01T09:24:51;16.50;;;3.47;;
14817;SDS011;7500;57.698;11.986;2023-02-01T09:27:19;19.23;;;4.07;;
14817;SDS011;7500;57.698;11.986;2023-02-01T09:29:46;16.10;;;3.60;;
14817;SDS011;7500;57.698;11.986;2023-02-01T09:32:17;22.23;;;3.70;;
14817;SDS011;7500;57.698;11.986;2023-02-01T09:34:44;20.63;;;3.53;;
14817;SDS011;7500;57.698;11.986;2023-02-01T09:37:13;21.03;;;3.93;;
14817;SDS011;7500;57.698;11.986;2023-02-01T09:39:40;18.97;;;3.17;;
14817;SDS011;7500;57.698;11.986;2023-02-01T09:42:11;26.97;;;4.17;;
14817;SDS011;7500;57.698;11.986;2023-02-01T09:44:55;23.30;;;4.10;;
14817;SDS011;7500;57.698;11.986;2023-02-01T09:47:30;24.10;;;3.97;;
14817;SDS011;7500;57.698;11.986;2023-02-01T09:49:58;16.80;;;3.47;;
14817;SDS011;7500;57.698;11.986;2023-02-01T09:52:31;19.57;;;3.50;;
14817;SDS011;7500;57.698;11.986;2023-02-01T09:55:03;17.97;;;3.60;;
14817;SDS011;7500;57.698;11.986;2023-02-01T09:57:39;20.50;;;4.27;;
14817;SDS011;7500;57.698;11.986;2023-02-01T10:00:14;22.17;;;3.77;;
14817;SDS011;7500;57.698;11.986;2023-02-01T10:02:46;17.73;;;4.30;;
14817;SDS011;7500;57.698;11.986;2023-02-01T10:05:18;22.53;;;4.43;;
14817;SDS011;7500;57.698;11.986;2023-02-01T10:07:59;18.67;;;3.57;;
14817;SDS011;7500;57.698;11.986;2023-02-01T10:10:32;24.00;;;3.93;;
14817;SDS011;7500;57.698;11.986;2023-02-01T10:13:17;21.77;;;5.83;;
14817;SDS011;7500;57.698;11.986;2023-02-01T10:15:57;23.10;;;3.97;;
14817;SDS011;7500;57.698;11.986;2023-02-01T10:18:51;20.80;;;4.60;;
14817;SDS011;7500;57.698;11.986;2023-02-01T10:21:32;17.57;;;4.90;;
14817;SDS011;7500;57.698;11.986;2023-02-01T10:24:17;22.17;;;5.50;;
14817;SDS011;7500;57.698;11.986;2023-02-01T10:26:55;21.03;;;4.60;;
14817;SDS011;7500;57.698;11.986;2023-02-01T10:29:27;26.67;;;3.83;;
14817;SDS011;7500;57.698;11.986;2023-02-01T10:32:01;22.00;;;3.90;;
14817;SDS011;7500;57.698;11.986;2023-02-01T10:34:30;19.60;;;2.80;;
14817;SDS011;7500;57.698;11.986;2023-02-01T10:37:00;29.17;;;4.27;;
14817;SDS011;7500;57.698;11.986;2023-02-01T10:39:37;23.17;;;4.40;;
14817;SDS011;7500;57.698;11.986;2023-02-01T10:42:04;19.90;;;4.50;;
14817;SDS011;7500;57.698;11.986;2023-02-01T10:44:31;23.60;;;3.60;;
14817;SDS011;7500;57.698;11.986;2023-02-01T10:47:08;22.37;;;4.07;;
14817;SDS011;7500;57.698;11.986;2023-02-01T10:49:37;24.73;;;4.20;;
14817;SDS011;7500;57.698;11.986;2023-02-01T10:52:09;22.77;;;4.37;;
14817;SDS011;7500;57.698;11.986;2023-02-01T10:54:43;23.77;;;3.93;;
14817;SDS011;7500;57.698;11.986;2023-02-01T10:57:19;22.57;;;3.40;;
14817;SDS011;7500;57.698;11.986;2023-02-01T10:59:48;18.63;;;3.80;;
14817;SDS011;7500;57.698;11.986;2023-02-01T11:02:19;19.17;;;3.90;;
14817;SDS011;7500;57.698;11.986;2023-02-01T11:04:58;21.13;;;4.20;;
14817;SDS011;7500;57.698;11.986;2023-02-01T11:07:27;26.33;;;4.27;;
14817;SDS011;7500;57.698;11.986;2023-02-01T11:09:56;26.93;;;4.97;;
14817;SDS011;7500;57.698;11.986;2023-02-01T11:12:28;25.73;;;4.67;;
14817;SDS011;7500;57.698;11.986;2023-02-01T11:15:01;23.13;;;4.77;;
14817;SDS011;7500;57.698;11.986;2023-02-01T11:17:39;24.67;;;4.53;;
14817;SDS011;7500;57.698;11.986;2023-02-01T11:20:13;27.70;;;4.83;;
14817;SDS011;7500;57.698;11.986;2023-02-01T11:22:45;24.93;;;4.70;;
14817;SDS011;7500;57.698;11.986;2023-02-01T11:25:15;26.97;;;4.83;;
14817;SDS011;7500;57.698;11.986;2023-02-01T11:27:43;23.80;;;4.20;;
14817;SDS011;7500;57.698;11.986;2023-02-01T11:30:15;25.33;;;4.90;;
14817;SDS011;7500;57.698;11.986;2023-02-01T11:32:44;27.13;;;5.47;;
14817;SDS011;7500;57.698;11.986;2023-02-01T11:35:13;31.83;;;4.80;;
14817;SDS011;7500;57.698;11.986;2023-02-01T11:37:44;27.50;;;4.43;;
14817;SDS011;7500;57.698;11.986;2023-02-01T11:40:25;31.43;;;6.20;;
14817;SDS011;7500;57.698;11.986;2023-02-01T11:42:54;22.07;;;4.10;;
14817;SDS011;7500;57.698;11.986;2023-02-01T11:45:26;20.60;;;3.67;;
14817;SDS011;7500;57.698;11.986;2023-02-01T11:47:55;18.07;;;3.40;;
14817;SDS011;7500;57.698;11.986;2023-02-01T11:50:26;15.77;;;2.80;;
14817;SDS011;7500;57.698;11.986;2023-02-01T11:56:02;17.97;;;3.70;;
14817;SDS011;7500;57.698;11.986;2023-02-01T11:58:42;24.90;;;4.27;;
14817;SDS011;7500;57.698;11.986;2023-02-01T12:01:26;20.33;;;3.93;;
14817;SDS011;7500;57.698;11.986;2023-02-01T12:04:10;19.43;;;3.50;;
14817;SDS011;7500;57.698;11.986;2023-02-01T12:07:04;22.33;;;4.00;;
14817;SDS011;7500;57.698;11.986;2023-02-01T12:09:44;20.77;;;4.33;;
14817;SDS011;7500;57.698;11.986;2023-02-01T12:12:22;23.10;;;3.93;;
14817;SDS011;7500;57.698;11.986;2023-02-01T12:15:05;22.83;;;3.83;;
14817;SDS011;7500;57.698;11.986;2023-02-01T12:26:38;24.10;;;4.13;;
14817;SDS011;7500;57.698;11.986;2023-02-01T12:29:25;25.13;;;4.03;;
14817;SDS011;7500;57.698;11.986;2023-02-01T12:32:17;24.20;;;4.00;;
14817;SDS011;7500;57.698;11.986;2023-02-01T12:35:06;17.70;;;3.57;;
14817;SDS011;7500;57.698;11.986;2023-02-01T12:37:55;20.93;;;3.53;;
14817;SDS011;7500;57.698;11.986;2023-02-01T12:40:37;18.93;;;3.50;;
14817;SDS011;7500;57.698;11.986;2023-02-01T12:43:16;19.60;;;4.20;;
14817;SDS011;7500;57.698;11.986;2023-02-01T12:45:52;25.00;;;3.93;;
14817;SDS011;7500;57.698;11.986;2023-02-01T12:48:28;22.63;;;4.03;;
14817;SDS011;7500;57.698;11.986;2023-02-01T12:51:00;24.80;;;4.23;;
14817;SDS011;7500;57.698;11.986;2023-02-01T12:53:32;18.77;;;3.50;;
14817;SDS011;7500;57.698;11.986;2023-02-01T12:56:09;18.67;;;3.40;;
14817;SDS011;7500;57.698;11.986;2023-02-01T12:58:41;22.47;;;4.23;;
14817;SDS011;7500;57.698;11.986;2023-02-01T13:01:14;22.23;;;4.20;;
14817;SDS011;7500;57.698;11.986;2023-02-01T13:03:44;20.97;;;4.03;;
14817;SDS011;7500;57.698;11.986;2023-02-01T13:06:21;28.93;;;4.70;;
14817;SDS011;7500;57.698;11.986;2023-02-01T13:08:53;26.77;;;4.40;;
14817;SDS011;7500;57.698;11.986;2023-02-01T13:11:29;24.23;;;5.30;;
14817;SDS011;7500;57.698;11.986;2023-02-01T13:13:59;27.17;;;4.63;;
14817;SDS011;7500;57.698;11.986;2023-02-01T13:16:32;27.83;;;4.77;;
14817;SDS011;7500;57.698;11.986;2023-02-01T13:19:05;37.53;;;5.37;;
14817;SDS011;7500;57.698;11.986;2023-02-01T13:21:39;21.90;;;3.87;;
14817;SDS011;7500;57.698;11.986;2023-02-01T13:24:24;26.57;;;5.03;;
14817;SDS011;7500;57.698;11.986;2023-02-01T13:26:59;21.50;;;4.57;;
14817;SDS011;7500;57.698;11.986;2023-02-01T13:29:26;22.70;;;5.33;;
14817;SDS011;7500;57.698;11.986;2023-02-01T13:34:58;32.33;;;5.33;;
14817;SDS011;7500;57.698;11.986;2023-02-01T13:37:51;27.20;;;5.47;;
14817;SDS011;7500;57.698;11.986;2023-02-01T13:40:31;26.37;;;4.67;;
14817;SDS011;7500;57.698;11.986;2023-02-01T13:43:09;27.57;;;4.80;;
14817;SDS011;7500;57.698;11.986;2023-02-01T13:45:45;29.00;;;5.40;;
14817;SDS011;7500;57.698;11.986;2023-02-01T13:48:23;32.47;;;6.00;;
14817;SDS011;7500;57.698;11.986;2023-02-01T13:50:54;25.70;;;5.33;;
14817;SDS011;7500;57.698;11.986;2023-02-01T13:53:23;24.83;;;5.63;;
14817;SDS011;7500;57.698;11.986;2023-02-01T13:55:55;36.13;;;5.90;;
14817;SDS011;7500;57.698;11.986;2023-02-01T13:58:32;26.57;;;4.73;;
14817;SDS011;7500;57.698;11.986;2023-02-01T14:07:21;22.93;;;4.33;;
14817;SDS011;7500;57.698;11.986;2023-02-01T14:09:49;24.33;;;4.70;;
14817;SDS011;7500;57.698;11.986;2023-02-01T14:15:17;28.03;;;4.77;;
14817;SDS011;7500;57.698;11.986;2023-02-01T14:17:50;27.80;;;4.80;;
14817;SDS011;7500;57.698;11.986;2023-02-01T14:23:19;25.47;;;4.30;;
14817;SDS011;7500;57.698;11.986;2023-02-01T14:28:49;26.87;;;4.77;;
14817;SDS011;7500;57.698;11.986;2023-02-01T14:31:28;29.23;;;4.30;;
14817;SDS011;7500;57.698;11.986;2023-02-01T14:34:00;24.67;;;4.77;;
14817;SDS011;7500;57.698;11.986;2023-02-01T14:36:42;34.60;;;4.90;;
14817;SDS011;7500;57.698;11.986;2023-02-01T14:39:26;31.37;;;4.30;;
14817;SDS011;7500;57.698;11.986;2023-02-01T14:42:02;23.27;;;4.47;;
14817;SDS011;7500;57.698;11.986;2023-02-01T14:44:33;24.57;;;4.30;;
14817;SDS011;7500;57.698;11.986;2023-02-01T14:47:07;26.70;;;5.70;;
14817;SDS011;7500;57.698;11.986;2023-02-01T14:49:49;21.83;;;3.33;;
14817;SDS011;7500;57.698;11.986;2023-02-01T14:52:22;19.00;;;3.10;;
14817;SDS011;7500;57.698;11.986;2023-02-01T14:54:59;15.20;;;3.10;;
14817;SDS011;7500;57.698;11.986;2023-02-01T14:57:30;13.80;;;2.87;;
14817;SDS011;7500;57.698;11.986;2023-02-01T15:00:05;11.43;;;2.30;;
14817;SDS011;7500;57.698;11.986;2023-02-01T15:02:35;15.07;;;2.50;;
14817;SDS011;7500;57.698;11.986;2023-02-01T15:05:10;8.53;;;2.00;;
14817;SDS011;7500;57.698;11.986;2023-02-01T15:07:49;8.00;;;1.77;;
14817;SDS011;7500;57.698;11.986;2023-02-01T15:10:18;8.27;;;1.70;;
14817;SDS011;7500;57.698;11.986;2023-02-01T15:12:48;7.60;;;1.70;;
14817;SDS011;7500;57.698;11.986;2023-02-01T15:15:16;7.00;;;1.50;;
14817;SDS011;7500;57.698;11.986;2023-02-01T15:17:53;7.13;;;1.60;;
14817;SDS011;7500;57.698;11.986;2023-02-01T15:20:23;6.90;;;1.50;;
14817;SDS011;7500;57.698;11.986;2023-02-01T15:22:54;10.03;;;1.77;;
14817;SDS011;7500;57.698;11.986;2023-02-01T15:25:26;7.53;;;1.60;;
14817;SDS011;7500;57.698;11.986;2023-02-01T15:27:54;5.57;;;1.10;;
14817;SDS011;7500;57.698;11.986;2023-02-01T15:30:22;3.27;;;1.10;;
14817;SDS011;7500;57.698;11.986;2023-02-01T15:32:50;4.30;;;1.00;;
14817;SDS011;7500;57.698;11.986;2023-02-01T15:35:38;7.27;;;0.87;;
14817;SDS011;7500;57.698;11.986;2023-02-01T15:41:11;12.13;;;2.10;;
14817;SDS011;7500;57.698;11.986;2023-02-01T15:43:41;9.10;;;1.00;;
14817;SDS011;7500;57.698;11.986;2023-02-01T15:46:11;6.97;;;1.20;;